createdAt,value
2023-04-07T00:18:32.347Z,92.20
2023-04-07T00:23:35.714Z,92.60
2023-04-07T00:28:38.171Z,92.50
2023-04-07T00:33:42.100Z,92.20
2023-04-07T00:38:44.522Z,92.10
2023-04-07T00:43:46.995Z,92.20
2023-04-07T00:48:51.023Z,91.90
2023-04-07T00:53:55.105Z,91.80
2023-04-07T00:58:57.839Z,92.00
2023-04-07T01:04:09.346Z,92.20
2023-04-07T01:09:21.640Z,92.70
2023-04-07T01:14:30.707Z,92.90
2023-04-07T01:19:47.677Z,92.70
2023-04-07T01:25:26.882Z,93.20
2023-04-07T01:30:35.097Z,93.50
2023-04-07T01:35:39.878Z,93.60
2023-04-07T01:40:43.883Z,93.30
2023-04-07T01:45:48.826Z,93.50
2023-04-07T01:50:52.594Z,93.60
2023-04-07T01:55:55.371Z,93.60
2023-04-07T02:00:59.631Z,93.50
2023-04-07T02:06:07.804Z,93.20
2023-04-07T02:11:12.935Z,92.80
2023-04-07T02:16:20.550Z,93.30
2023-04-07T02:21:24.136Z,93.90
2023-04-07T02:26:35.390Z,94.30
2023-04-07T02:31:39.574Z,94.00
2023-04-07T02:36:45.096Z,93.70
2023-04-07T02:41:47.677Z,93.60
2023-04-07T02:46:51.690Z,93.80
2023-04-07T02:51:57.509Z,94.10
2023-04-07T02:57:00.050Z,94.10
2023-04-07T03:02:07.192Z,94.30
2023-04-07T03:07:11.856Z,94.70
2023-04-07T03:12:14.554Z,94.80
2023-04-07T03:17:18.945Z,94.70
2023-04-07T03:22:21.697Z,94.70
2023-04-07T03:27:27.491Z,95.40
2023-04-07T03:32:31.667Z,95.40
2023-04-07T03:37:34.351Z,95.10
2023-04-07T03:42:38.180Z,95.60
2023-04-07T03:47:44.520Z,95.40
2023-04-07T03:52:48.058Z,95.30
2023-04-07T03:58:01.338Z,95.50
2023-04-07T04:03:10.387Z,95.00
2023-04-07T04:08:20.886Z,95.60
2023-04-07T04:13:23.511Z,96.20
2023-04-07T04:18:28.708Z,96.00
2023-04-07T04:23:32.467Z,96.20
2023-04-07T04:28:35.754Z,96.30
2023-04-07T04:33:42.164Z,95.90
2023-04-07T04:38:44.704Z,96.20
2023-04-07T04:43:52.768Z,96.10
2023-04-07T04:49:00.686Z,95.80
2023-04-07T04:54:04.414Z,95.80
2023-04-07T04:59:08.316Z,95.90
2023-04-07T05:04:29.223Z,95.40
2023-04-07T05:09:38.608Z,95.90
2023-04-07T05:14:41.880Z,96.10
2023-04-07T05:19:46.563Z,96.20
2023-04-07T05:24:58.998Z,95.80
2023-04-07T05:30:01.821Z,95.60
2023-04-07T05:35:10.829Z,95.40
2023-04-07T05:40:18.431Z,95.50
2023-04-07T05:45:21.945Z,95.30
2023-04-07T05:50:27.711Z,95.30
2023-04-07T05:55:31.956Z,95.30
2023-04-07T06:00:34.535Z,95.00
2023-04-07T06:05:51.980Z,94.90
2023-04-07T06:10:57.183Z,94.40
2023-04-07T06:15:59.749Z,94.60
2023-04-07T06:21:04.712Z,94.60
2023-04-07T06:26:10.916Z,94.60
2023-04-07T06:31:13.472Z,94.80
2023-04-07T06:36:18.104Z,95.10
2023-04-07T06:41:20.644Z,94.80
2023-04-07T06:46:26.027Z,95.20
2023-04-07T06:51:30.085Z,95.30
2023-04-07T06:56:33.690Z,95.50
2023-04-07T07:01:36.334Z,95.90
2023-04-07T07:06:40.710Z,95.90
2023-04-07T07:11:43.699Z,95.80
2023-04-07T07:16:46.517Z,95.90
2023-04-07T07:21:50.458Z,95.60
2023-04-07T07:26:52.918Z,95.80
2023-04-07T07:31:56.263Z,95.80
2023-04-07T07:37:00.406Z,95.80
2023-04-07T07:42:02.893Z,95.70
2023-04-07T07:47:05.277Z,95.70
2023-04-07T07:52:10.451Z,95.80
2023-04-07T07:57:13.261Z,95.70
2023-04-07T08:02:15.856Z,96.30
2023-04-07T08:07:19.875Z,96.20
2023-04-07T08:12:22.820Z,96.30
2023-04-07T08:17:25.631Z,96.40
2023-04-07T08:22:29.730Z,95.90
2023-04-07T08:27:32.236Z,95.90
2023-04-07T08:32:39.024Z,96.00
2023-04-07T08:37:43.144Z,96.20
2023-04-07T08:42:49.488Z,95.60
2023-04-07T08:47:57.049Z,96.00
2023-04-07T08:53:08.548Z,95.80
2023-04-07T08:58:11.537Z,95.00
2023-04-07T09:03:14.758Z,95.60
2023-04-07T09:08:18.836Z,95.30
2023-04-07T09:13:21.386Z,95.10
2023-04-07T09:18:24.281Z,94.90
2023-04-07T09:23:33.526Z,94.80
2023-04-07T09:28:41.883Z,95.10
2023-04-07T09:33:44.476Z,94.50
2023-04-07T09:38:48.683Z,94.10
2023-04-07T09:43:57.601Z,93.70
2023-04-07T09:49:03.887Z,94.10
2023-04-07T09:54:08.559Z,94.30
2023-04-07T09:59:11.483Z,94.00
2023-04-07T10:04:14.081Z,93.90
2023-04-07T10:09:18.349Z,94.00
2023-04-07T10:14:27.446Z,93.40
2023-04-07T10:19:32.980Z,93.50
2023-04-07T10:24:53.942Z,93.50
2023-04-07T10:29:57.356Z,93.60
2023-04-07T10:35:00.668Z,92.90
2023-04-07T10:40:30.147Z,93.00
2023-04-07T10:45:57.406Z,93.30
2023-04-07T10:51:19.376Z,92.30
2023-04-07T10:56:23.319Z,92.60
2023-04-07T11:01:25.725Z,92.70
2023-04-07T11:06:28.888Z,92.50
2023-04-07T11:11:41.636Z,92.50
2023-04-07T11:16:44.638Z,92.00
2023-04-07T11:21:47.228Z,92.20
2023-04-07T11:26:52.362Z,92.80
2023-04-07T11:31:58.073Z,92.40
2023-04-07T11:37:20.316Z,92.40
2023-04-07T11:42:34.541Z,92.70
2023-04-07T11:47:38.762Z,92.10
2023-04-07T11:52:42.526Z,92.30
2023-04-07T11:57:47.294Z,91.90
2023-04-07T12:02:52.767Z,91.70
2023-04-07T12:07:58.451Z,91.80
2023-04-07T12:13:02.971Z,91.90
2023-04-07T12:18:05.659Z,91.30
2023-04-07T12:23:08.216Z,90.60
2023-04-07T12:28:12.111Z,90.80
2023-04-07T12:33:14.776Z,90.50
2023-04-07T12:38:18.327Z,90.80
2023-04-07T12:43:22.308Z,90.60
2023-04-07T12:48:25.332Z,90.70
2023-04-07T12:53:27.927Z,90.80
2023-04-07T12:58:32.111Z,91.00
2023-04-07T13:03:35.007Z,90.90
2023-04-07T13:08:38.404Z,90.80
2023-04-07T13:13:42.661Z,90.80
2023-04-07T13:18:45.375Z,90.50
2023-04-07T13:23:47.879Z,90.50
2023-04-07T13:28:51.808Z,90.50
2023-04-07T13:33:54.362Z,90.20
2023-04-07T13:38:57.614Z,90.30
2023-04-07T13:44:01.730Z,90.40
2023-04-07T13:49:04.319Z,90.10
2023-04-07T13:54:06.867Z,89.40
2023-04-07T13:59:11.270Z,89.30
2023-04-07T14:04:13.908Z,88.60
2023-04-07T14:09:16.543Z,87.80
2023-04-07T14:14:23.461Z,86.90
2023-04-07T14:19:26.071Z,86.30
2023-04-07T14:24:28.567Z,86.20
2023-04-07T14:29:33.085Z,84.60
2023-04-07T14:34:35.599Z,85.30
2023-04-07T14:39:38.108Z,84.70
2023-04-07T14:44:42.127Z,85.50
2023-04-07T14:49:44.621Z,85.20
2023-04-07T14:54:47.179Z,84.90
2023-04-07T14:59:54.147Z,84.70
2023-04-07T15:04:56.858Z,84.70
2023-04-07T15:09:59.774Z,84.40
2023-04-07T15:15:04.286Z,84.00
2023-04-07T15:20:07.975Z,85.00
2023-04-07T15:25:10.453Z,85.60
2023-04-07T15:30:14.710Z,84.40
2023-04-07T15:35:17.536Z,83.90
2023-04-07T15:40:20.209Z,83.30
2023-04-07T15:45:24.505Z,83.40
2023-04-07T15:50:27.041Z,83.80
2023-04-07T15:55:29.462Z,84.50
2023-04-07T16:00:37.822Z,84.40
2023-04-07T16:05:40.477Z,84.30
2023-04-07T16:10:46.099Z,84.40
2023-04-07T16:15:50.211Z,84.60
2023-04-07T16:20:53.032Z,84.00
2023-04-07T16:25:56.584Z,89.30
2023-04-07T16:31:00.386Z,90.80
2023-04-07T16:36:03.101Z,91.80
2023-04-07T16:41:07.968Z,92.00
2023-04-07T16:46:11.803Z,91.50
2023-04-07T16:51:17.233Z,92.60
2023-04-07T16:56:22.173Z,91.60
2023-04-07T17:01:28.725Z,92.30
2023-04-07T17:06:31.221Z,92.90
2023-04-07T17:11:33.965Z,93.80
2023-04-07T17:16:37.840Z,98.40
2023-04-07T17:21:40.298Z,99.10
2023-04-07T17:26:42.854Z,99.80
2023-04-07T17:31:49.645Z,99.80
2023-04-07T17:36:52.085Z,99.90
2023-04-07T17:41:54.742Z,99.90
2023-04-07T17:46:58.675Z,99.90
2023-04-07T17:52:01.289Z,99.90
2023-04-07T17:57:03.885Z,99.90
2023-04-07T18:02:08.399Z,99.90
2023-04-07T18:07:11.259Z,99.90
2023-04-07T18:12:13.787Z,99.90
2023-04-07T18:17:18.021Z,99.90
2023-04-07T18:22:20.676Z,99.90
2023-04-07T18:27:23.364Z,99.90
2023-04-07T18:32:27.449Z,99.90
2023-04-07T18:37:30.161Z,99.90
2023-04-07T18:42:32.863Z,99.90
2023-04-07T18:47:37.075Z,99.90
2023-04-07T18:52:39.690Z,99.90
2023-04-07T18:57:42.697Z,99.90
2023-04-07T19:02:50.462Z,99.90
2023-04-07T19:07:53.260Z,99.90
2023-04-07T19:12:57.258Z,99.90
2023-04-07T19:18:01.979Z,99.90
2023-04-07T19:23:04.624Z,99.90
2023-04-07T19:28:07.277Z,99.90
2023-04-07T19:33:11.787Z,99.90
2023-04-07T19:38:17.357Z,99.80
2023-04-07T19:43:19.757Z,99.90
2023-04-07T19:48:23.595Z,99.90
2023-04-07T19:53:26.403Z,99.90
2023-04-07T19:58:29.053Z,99.90
2023-04-07T20:03:33.535Z,99.90
2023-04-07T20:08:36.300Z,99.90
2023-04-07T20:13:39.594Z,99.90
2023-04-07T20:18:43.652Z,99.90
2023-04-07T20:23:46.417Z,99.90
2023-04-07T20:28:49.510Z,99.90
2023-04-07T20:33:54.075Z,99.90
2023-04-07T20:38:56.762Z,99.90
2023-04-07T20:44:01.683Z,99.80
2023-04-07T20:49:05.815Z,99.90
2023-04-07T20:54:08.496Z,99.90
2023-04-07T20:59:11.248Z,99.90
2023-04-07T21:04:15.413Z,99.90
2023-04-07T21:09:18.243Z,99.90
2023-04-07T21:14:20.855Z,99.90
2023-04-07T21:19:25.008Z,99.90
2023-04-07T21:24:27.738Z,99.90
2023-04-07T21:29:31.109Z,99.90
2023-04-07T21:34:35.054Z,99.90
2023-04-07T21:39:37.708Z,99.90
2023-04-07T21:44:40.288Z,99.90
2023-04-07T21:49:44.345Z,99.90
2023-04-07T21:54:47.010Z,99.70
2023-04-07T21:59:49.644Z,99.90
2023-04-07T22:04:53.576Z,99.90
2023-04-07T22:09:57.538Z,99.90
2023-04-07T22:15:00.111Z,99.90
2023-04-07T22:20:04.408Z,99.90
2023-04-07T22:25:07.811Z,99.90
2023-04-07T22:30:10.770Z,99.90
2023-04-07T22:35:14.876Z,99.90
2023-04-07T22:40:20.314Z,99.90
2023-04-07T22:45:22.928Z,99.90
2023-04-07T22:50:26.927Z,99.90
2023-04-07T22:55:29.432Z,99.90
2023-04-07T23:00:31.950Z,99.60
2023-04-07T23:05:38.904Z,99.80
2023-04-07T23:10:41.335Z,99.90
2023-04-07T23:15:46.647Z,99.90
2023-04-07T23:20:53.311Z,99.70
2023-04-07T23:25:55.839Z,99.70
2023-04-07T23:30:58.430Z,99.50
2023-04-07T23:36:02.580Z,99.50
2023-04-07T23:41:05.206Z,99.70
2023-04-07T23:46:07.716Z,99.30
2023-04-07T23:51:11.744Z,99.60
2023-04-07T23:56:14.351Z,99.90
